createdAt,value
2019-01-17T00:00:41.355Z,84.31
2019-01-17T00:01:42.225Z,84.21
2019-01-17T00:02:41.353Z,84.00
2019-01-17T00:03:41.261Z,84.21
2019-01-17T00:04:41.270Z,84.21
2019-01-17T00:05:41.732Z,84.21
2019-01-17T00:06:41.170Z,84.11
2019-01-17T00:07:41.167Z,84.21
2019-01-17T00:08:41.090Z,84.11
2019-01-17T00:09:41.042Z,83.90
2019-01-17T00:10:41.726Z,83.69
2019-01-17T00:11:40.975Z,83.58
2019-01-17T00:12:40.986Z,84.00
2019-01-17T00:13:40.965Z,83.69
2019-01-17T00:14:40.873Z,83.37
2019-01-17T00:15:40.838Z,83.06
2019-01-17T00:16:40.801Z,83.17
2019-01-17T00:17:40.765Z,83.23
2019-01-17T00:18:40.777Z,83.23
2019-01-17T00:19:40.709Z,82.71
2019-01-17T00:20:40.704Z,82.82
2019-01-17T00:21:40.628Z,83.03
2019-01-17T00:22:40.689Z,83.34
2019-01-17T00:23:40.580Z,82.82
2019-01-17T00:24:40.572Z,82.51
2019-01-17T00:25:40.490Z,82.51
2019-01-17T00:26:40.514Z,82.82
2019-01-17T00:27:40.432Z,82.51
2019-01-17T00:28:40.384Z,82.51
2019-01-17T00:29:40.383Z,82.71
2019-01-17T00:30:41.298Z,82.51
2019-01-17T00:31:40.282Z,82.46
2019-01-17T00:32:40.247Z,82.71
2019-01-17T00:33:40.215Z,81.98
2019-01-17T00:34:40.206Z,82.30
2019-01-17T00:35:40.204Z,81.98
2019-01-17T00:36:40.114Z,81.77
2019-01-17T00:37:40.076Z,81.67
2019-01-17T00:38:40.039Z,81.43
2019-01-17T00:39:40.736Z,81.63
2019-01-17T00:40:40.020Z,81.22
2019-01-17T00:41:39.949Z,81.32
2019-01-17T00:42:39.902Z,81.43
2019-01-17T00:43:39.864Z,81.01
2019-01-17T00:44:39.833Z,81.01
2019-01-17T00:45:39.846Z,81.12
2019-01-17T00:46:39.767Z,81.12
2019-01-17T00:47:39.736Z,81.12
2019-01-17T00:48:39.709Z,81.22
2019-01-17T00:49:39.666Z,81.12
2019-01-17T00:50:39.672Z,81.01
2019-01-17T00:51:39.593Z,81.12
2019-01-17T00:52:40.263Z,81.01
2019-01-17T00:53:39.526Z,81.12
2019-01-17T00:54:39.489Z,81.22
2019-01-17T00:55:39.493Z,81.12
2019-01-17T00:56:40.138Z,81.22
2019-01-17T00:57:39.390Z,81.01
2019-01-17T00:58:39.353Z,80.94
2019-01-17T00:59:39.345Z,81.57
2019-01-17T01:00:39.285Z,81.46
2019-01-17T01:01:39.319Z,81.32
2019-01-17T01:02:39.216Z,81.57
2019-01-17T01:03:39.184Z,81.36
2019-01-17T01:04:39.149Z,81.32
2019-01-17T01:05:39.126Z,80.91
2019-01-17T01:06:39.297Z,81.57
2019-01-17T01:07:39.048Z,81.63
2019-01-17T01:08:39.076Z,81.26
2019-01-17T01:09:38.978Z,81.77
2019-01-17T01:10:38.957Z,81.67
2019-01-17T01:11:39.305Z,81.57
2019-01-17T01:12:38.945Z,81.74
2019-01-17T01:13:38.843Z,81.36
2019-01-17T01:14:38.799Z,81.36
2019-01-17T01:15:38.774Z,80.70
2019-01-17T01:16:38.784Z,81.57
2019-01-17T01:17:38.728Z,81.01
2019-01-17T01:18:38.662Z,81.26
2019-01-17T01:19:38.672Z,81.01
2019-01-17T01:20:38.591Z,81.12
2019-01-17T01:21:38.585Z,81.36
2019-01-17T01:22:38.529Z,81.32
2019-01-17T01:23:38.536Z,81.01
2019-01-17T01:24:38.506Z,80.39
2019-01-17T01:25:38.426Z,80.39
2019-01-17T01:26:39.254Z,80.56
2019-01-17T01:27:38.358Z,80.56
2019-01-17T01:28:38.358Z,80.39
2019-01-17T01:29:38.422Z,80.49
2019-01-17T01:30:39.236Z,80.25
2019-01-17T01:31:38.213Z,80.25
2019-01-17T01:32:38.177Z,79.94
2019-01-17T01:33:38.148Z,80.15
2019-01-17T01:34:38.308Z,79.94
2019-01-17T01:35:38.121Z,79.21
2019-01-17T01:36:38.051Z,79.21
2019-01-17T01:37:38.010Z,79.83
2019-01-17T01:38:37.970Z,79.62
2019-01-17T01:39:38.300Z,79.31
2019-01-17T01:40:37.957Z,79.31
2019-01-17T01:41:37.872Z,79.21
2019-01-17T01:42:37.837Z,79.66
2019-01-17T01:43:38.737Z,79.62
2019-01-17T01:44:37.780Z,79.72
2019-01-17T01:45:37.786Z,79.21
2019-01-17T01:46:37.695Z,79.94
2019-01-17T01:47:37.679Z,79.31
2019-01-17T01:48:38.247Z,79.83
2019-01-17T01:49:37.592Z,79.83
2019-01-17T01:50:37.607Z,79.94
2019-01-17T01:51:37.543Z,79.83
2019-01-17T01:52:37.495Z,80.04
2019-01-17T01:53:37.466Z,79.97
2019-01-17T01:54:37.420Z,80.15
2019-01-17T01:55:37.429Z,79.87
2019-01-17T01:56:37.350Z,80.04
2019-01-17T01:57:37.372Z,79.83
2019-01-17T01:58:37.289Z,79.94
2019-01-17T01:59:37.248Z,79.31
2019-01-17T02:00:37.217Z,79.62
2019-01-17T02:01:38.144Z,79.41
2019-01-17T02:02:37.144Z,79.31
2019-01-17T02:03:37.165Z,79.10
2019-01-17T02:04:37.112Z,79.21
2019-01-17T02:05:37.056Z,78.86
2019-01-17T02:06:37.063Z,79.17
2019-01-17T02:07:36.996Z,78.86
2019-01-17T02:08:36.934Z,78.65
2019-01-17T02:09:37.797Z,78.65
2019-01-17T02:10:36.889Z,78.34
2019-01-17T02:11:37.691Z,78.75
2019-01-17T02:12:36.814Z,78.34
2019-01-17T02:13:36.769Z,78.34
2019-01-17T02:14:36.858Z,78.44
2019-01-17T02:15:36.717Z,77.47
2019-01-17T02:16:36.673Z,77.47
2019-01-17T02:17:38.287Z,77.16
2019-01-17T02:18:36.642Z,77.26
2019-01-17T02:19:36.595Z,77.37
2019-01-17T02:20:37.239Z,76.71
2019-01-17T02:21:36.491Z,76.71
2019-01-17T02:22:36.512Z,76.50
2019-01-17T02:23:36.422Z,77.12
2019-01-17T02:24:36.388Z,76.50
2019-01-17T02:25:37.245Z,76.37
2019-01-17T02:26:36.329Z,76.47
2019-01-17T02:27:36.348Z,76.29
2019-01-17T02:28:36.250Z,76.16
2019-01-17T02:29:36.231Z,75.98
2019-01-17T02:30:36.752Z,75.54
2019-01-17T02:31:36.161Z,75.23
2019-01-17T02:32:36.175Z,75.43
2019-01-17T02:33:36.086Z,75.33
2019-01-17T02:34:36.054Z,75.19
2019-01-17T02:35:36.752Z,75.33
2019-01-17T02:36:35.991Z,74.46
2019-01-17T02:37:36.011Z,74.46
2019-01-17T02:38:35.935Z,74.88
2019-01-17T02:39:36.750Z,74.98
2019-01-17T02:40:35.851Z,75.19
2019-01-17T02:41:35.812Z,74.57
2019-01-17T02:42:35.839Z,74.88
2019-01-17T02:43:36.248Z,74.98
2019-01-17T02:44:35.718Z,74.67
2019-01-17T02:45:35.687Z,74.98
2019-01-17T02:46:35.646Z,74.98
2019-01-17T02:47:36.247Z,74.26
2019-01-17T02:48:35.623Z,74.67
2019-01-17T02:49:35.551Z,74.05
2019-01-17T02:50:35.522Z,74.77
2019-01-17T02:51:35.530Z,74.98
2019-01-17T02:52:35.449Z,74.98
2019-01-17T02:53:35.427Z,74.88
2019-01-17T02:54:35.839Z,74.63
2019-01-17T02:55:35.349Z,74.57
2019-01-17T02:56:35.337Z,74.67
2019-01-17T02:57:36.217Z,73.80
2019-01-17T02:58:35.302Z,74.95
2019-01-17T02:59:35.215Z,74.67
2019-01-17T03:00:35.174Z,74.67
2019-01-17T03:01:35.150Z,74.01
2019-01-17T03:02:35.158Z,73.63
2019-01-17T03:03:35.073Z,73.80
2019-01-17T03:04:35.048Z,74.22
2019-01-17T03:05:35.047Z,74.01
2019-01-17T03:06:35.014Z,74.01
2019-01-17T03:07:34.950Z,74.01
2019-01-17T03:08:34.926Z,73.70
2019-01-17T03:09:35.296Z,74.01
2019-01-17T03:10:34.840Z,74.43
2019-01-17T03:11:34.814Z,74.32
2019-01-17T03:12:34.825Z,74.32
2019-01-17T03:13:34.744Z,73.80
2019-01-17T03:14:34.709Z,74.22
2019-01-17T03:15:35.242Z,74.01
2019-01-17T03:16:34.686Z,74.43
2019-01-17T03:17:34.631Z,74.22
2019-01-17T03:18:34.819Z,74.22
2019-01-17T03:19:34.540Z,74.22
2019-01-17T03:20:34.555Z,73.39
2019-01-17T03:21:34.478Z,73.70
2019-01-17T03:22:34.443Z,73.70
2019-01-17T03:23:35.248Z,74.11
2019-01-17T03:24:34.381Z,74.01
2019-01-17T03:25:34.387Z,73.60
2019-01-17T03:26:34.341Z,74.01
2019-01-17T03:27:35.280Z,74.11
2019-01-17T03:28:35.210Z,74.11
2019-01-17T03:29:34.208Z,73.70
2019-01-17T03:30:34.225Z,73.88
2019-01-17T03:31:34.270Z,73.46
2019-01-17T03:32:34.107Z,74.08
2019-01-17T03:33:34.168Z,73.67
2019-01-17T03:34:34.047Z,73.60
2019-01-17T03:35:34.014Z,73.36
2019-01-17T03:36:33.973Z,73.39
2019-01-17T03:37:34.910Z,73.18
2019-01-17T03:38:33.960Z,73.80
2019-01-17T03:39:33.878Z,73.46
2019-01-17T03:40:33.846Z,73.80
2019-01-17T03:41:33.809Z,74.22
2019-01-17T03:42:33.820Z,73.88
2019-01-17T03:43:33.745Z,73.67
2019-01-17T03:44:33.707Z,73.77
2019-01-17T03:45:33.677Z,73.70
2019-01-17T03:46:33.686Z,73.98
2019-01-17T03:47:33.621Z,73.91
2019-01-17T03:48:33.667Z,73.91
2019-01-17T03:49:33.544Z,73.70
2019-01-17T03:50:33.509Z,74.01
2019-01-17T03:51:33.472Z,74.08
2019-01-17T03:52:33.497Z,73.46
2019-01-17T03:53:34.267Z,73.91
2019-01-17T03:54:33.378Z,73.98
2019-01-17T03:55:33.350Z,73.80
2019-01-17T03:56:33.309Z,73.67
2019-01-17T03:57:33.352Z,73.67
2019-01-17T03:58:33.758Z,73.05
2019-01-17T03:59:33.211Z,73.15
2019-01-17T04:00:33.180Z,73.88
2019-01-17T04:01:33.752Z,73.46
2019-01-17T04:02:33.156Z,73.15
2019-01-17T04:03:33.084Z,73.57
2019-01-17T04:04:33.114Z,73.05
2019-01-17T04:05:33.309Z,73.67
2019-01-17T04:06:32.979Z,73.67
2019-01-17T04:07:32.945Z,73.88
2019-01-17T04:08:32.997Z,73.88
2019-01-17T04:09:32.879Z,73.67
2019-01-17T04:10:33.315Z,73.98
2019-01-17T04:11:32.824Z,73.88
2019-01-17T04:12:32.782Z,73.67
2019-01-17T04:13:32.742Z,73.88
2019-01-17T04:14:33.266Z,73.88
2019-01-17T04:15:32.734Z,73.77
2019-01-17T04:16:32.643Z,73.57
2019-01-17T04:17:32.645Z,73.46
2019-01-17T04:18:32.577Z,73.77
2019-01-17T04:19:32.594Z,73.67
2019-01-17T04:20:32.512Z,73.67
2019-01-17T04:21:32.494Z,73.67
2019-01-17T04:22:32.447Z,73.77
2019-01-17T04:23:32.413Z,73.36
2019-01-17T04:24:32.425Z,73.43
2019-01-17T04:25:32.418Z,73.74
2019-01-17T04:26:32.316Z,73.94
2019-01-17T04:27:32.286Z,73.94
2019-01-17T04:28:32.249Z,73.74
2019-01-17T04:29:32.265Z,74.05
2019-01-17T04:30:32.234Z,73.74
2019-01-17T04:31:32.148Z,73.63
2019-01-17T04:32:32.113Z,73.74
2019-01-17T04:33:32.087Z,73.74
2019-01-17T04:34:32.054Z,73.94
2019-01-17T04:35:32.333Z,73.84
2019-01-17T04:36:31.982Z,73.94
2019-01-17T04:37:31.951Z,74.05
2019-01-17T04:38:31.943Z,73.81
2019-01-17T04:39:31.904Z,73.74
2019-01-17T04:40:32.344Z,74.43
2019-01-17T04:41:31.814Z,73.50
2019-01-17T04:42:31.790Z,73.50
2019-01-17T04:43:31.795Z,73.60
2019-01-17T04:44:31.726Z,73.71
2019-01-17T04:45:31.692Z,73.71
2019-01-17T04:46:31.826Z,74.12
2019-01-17T04:47:31.627Z,73.71
2019-01-17T04:48:31.588Z,74.12
2019-01-17T04:49:31.570Z,74.12
2019-01-17T04:50:32.260Z,73.50
2019-01-17T04:51:31.536Z,74.22
2019-01-17T04:52:31.453Z,74.02
2019-01-17T04:53:31.424Z,74.12
2019-01-17T04:54:32.262Z,73.81
2019-01-17T04:55:31.404Z,73.98
2019-01-17T04:56:31.382Z,73.57
2019-01-17T04:57:31.287Z,73.57
2019-01-17T04:58:31.263Z,73.77
2019-01-17T04:59:31.762Z,73.46
2019-01-17T05:00:31.191Z,73.91
2019-01-17T05:01:31.200Z,73.57
2019-01-17T05:02:31.165Z,74.08
2019-01-17T05:03:31.761Z,74.08
2019-01-17T05:04:31.061Z,73.98
2019-01-17T05:05:31.027Z,73.98
2019-01-17T05:06:30.991Z,73.77
2019-01-17T05:07:31.006Z,73.46
2019-01-17T05:08:31.311Z,73.77
2019-01-17T05:09:30.892Z,73.98
2019-01-17T05:10:30.930Z,73.67
2019-01-17T05:11:30.826Z,73.98
2019-01-17T05:12:30.858Z,74.19
2019-01-17T05:13:31.262Z,73.77
2019-01-17T05:14:30.731Z,73.88
2019-01-17T05:15:30.696Z,73.88
2019-01-17T05:16:30.662Z,73.77
2019-01-17T05:17:30.686Z,73.67
2019-01-17T05:18:30.663Z,73.98
2019-01-17T05:19:30.561Z,74.08
2019-01-17T05:20:30.539Z,73.67
2019-01-17T05:21:31.271Z,73.77
2019-01-17T05:22:30.470Z,73.67
2019-01-17T05:23:30.483Z,73.77
2019-01-17T05:24:31.260Z,73.67
2019-01-17T05:25:30.363Z,73.25
2019-01-17T05:26:30.404Z,73.88
2019-01-17T05:27:30.301Z,73.84
2019-01-17T05:28:30.265Z,74.08
2019-01-17T05:29:30.234Z,73.94
2019-01-17T05:30:30.198Z,73.84
2019-01-17T05:31:30.211Z,74.05
2019-01-17T05:32:36.497Z,73.84
2019-01-17T05:33:30.149Z,74.08
2019-01-17T05:34:30.078Z,74.05
2019-01-17T05:35:30.054Z,74.08
2019-01-17T05:36:30.005Z,73.94
2019-01-17T05:37:29.973Z,73.54
2019-01-17T05:38:29.980Z,73.77
2019-01-17T05:39:29.939Z,73.94
2019-01-17T05:40:29.872Z,73.84
2019-01-17T05:41:29.837Z,73.43
2019-01-17T05:42:29.803Z,73.54
2019-01-17T05:43:29.775Z,73.64
2019-01-17T05:44:29.783Z,73.74
2019-01-17T05:45:29.757Z,73.64
2019-01-17T05:46:29.672Z,73.54
2019-01-17T05:47:29.638Z,74.05
2019-01-17T05:48:29.612Z,73.43
2019-01-17T05:49:29.574Z,73.74
2019-01-17T05:50:29.585Z,73.64
2019-01-17T05:51:29.508Z,73.94
2019-01-17T05:52:29.472Z,74.05
2019-01-17T05:53:29.443Z,74.26
2019-01-17T05:54:29.408Z,74.05
2019-01-17T05:55:29.426Z,73.84
2019-01-17T05:56:29.352Z,74.67
2019-01-17T05:57:29.313Z,74.36
2019-01-17T05:58:29.318Z,75.19
2019-01-17T05:59:29.251Z,75.40
2019-01-17T06:00:29.258Z,75.19
2019-01-17T06:01:29.186Z,75.60
2019-01-17T06:02:29.159Z,75.95
2019-01-17T06:03:29.113Z,75.50
2019-01-17T06:04:29.140Z,75.50
2019-01-17T06:05:29.052Z,75.50
2019-01-17T06:06:32.954Z,75.70
2019-01-17T06:07:28.983Z,76.22
2019-01-17T06:08:28.948Z,76.43
2019-01-17T06:09:29.013Z,76.05
2019-01-17T06:10:28.887Z,76.05
2019-01-17T06:11:28.846Z,76.12
2019-01-17T06:12:28.814Z,75.95
2019-01-17T06:13:28.790Z,76.26
2019-01-17T06:14:28.796Z,75.91
2019-01-17T06:15:28.725Z,76.57
2019-01-17T06:16:28.683Z,76.05
2019-01-17T06:17:28.654Z,76.78
2019-01-17T06:18:28.616Z,76.57
2019-01-17T06:19:28.637Z,76.57
2019-01-17T06:20:28.554Z,76.67
2019-01-17T06:21:28.524Z,75.95
2019-01-17T06:22:28.482Z,76.26
2019-01-17T06:23:28.456Z,76.36
2019-01-17T06:24:28.469Z,76.26
2019-01-17T06:25:28.464Z,77.29
2019-01-17T06:26:28.400Z,76.88
2019-01-17T06:27:28.389Z,76.98
2019-01-17T06:28:28.365Z,76.98
2019-01-17T06:29:28.270Z,77.50
2019-01-17T06:30:28.228Z,77.19
2019-01-17T06:31:28.189Z,77.70
2019-01-17T06:32:28.156Z,77.39
2019-01-17T06:33:28.193Z,77.36
2019-01-17T06:34:28.091Z,77.09
2019-01-17T06:35:28.056Z,77.19
2019-01-17T06:36:28.350Z,77.29
2019-01-17T06:37:28.026Z,76.88
2019-01-17T06:38:28.086Z,77.09
2019-01-17T06:39:28.008Z,77.19
2019-01-17T06:40:27.963Z,77.50
2019-01-17T06:41:27.912Z,77.19
2019-01-17T06:42:27.827Z,77.50
2019-01-17T06:43:28.367Z,77.29
2019-01-17T06:44:27.754Z,77.09
2019-01-17T06:45:27.767Z,77.29
2019-01-17T06:46:27.732Z,77.29
2019-01-17T06:47:27.669Z,77.26
2019-01-17T06:48:27.633Z,77.81
2019-01-17T06:49:27.597Z,77.29
2019-01-17T06:50:27.561Z,77.50
2019-01-17T06:51:27.584Z,77.60
2019-01-17T06:52:27.502Z,77.39
2019-01-17T06:53:27.462Z,77.29
2019-01-17T06:54:27.427Z,76.88
2019-01-17T06:55:27.443Z,76.88
2019-01-17T06:56:27.361Z,76.88
2019-01-17T06:57:27.381Z,77.39
2019-01-17T06:58:27.296Z,77.09
2019-01-17T06:59:27.313Z,77.50
2019-01-17T07:00:27.236Z,77.09
2019-01-17T07:01:27.206Z,77.50
2019-01-17T07:02:27.774Z,77.19
2019-01-17T07:03:27.134Z,77.60
2019-01-17T07:04:27.164Z,77.60
2019-01-17T07:05:27.072Z,77.29
2019-01-17T07:06:27.078Z,77.91
2019-01-17T07:07:27.006Z,77.81
2019-01-17T07:08:27.780Z,78.33
2019-01-17T07:09:26.976Z,78.53
2019-01-17T07:10:26.901Z,78.43
2019-01-17T07:11:26.865Z,79.05
2019-01-17T07:12:26.870Z,78.85
2019-01-17T07:13:26.798Z,78.43
2019-01-17T07:14:26.817Z,78.95
2019-01-17T07:15:26.738Z,79.26
2019-01-17T07:16:26.700Z,79.05
2019-01-17T07:17:26.744Z,78.85
2019-01-17T07:18:26.636Z,79.40
2019-01-17T07:19:26.605Z,78.99
2019-01-17T07:20:26.575Z,78.53
2019-01-17T07:21:27.276Z,78.85
2019-01-17T07:22:26.568Z,78.85
2019-01-17T07:23:26.475Z,79.05
2019-01-17T07:24:26.445Z,79.05
2019-01-17T07:25:26.411Z,78.85
2019-01-17T07:26:26.376Z,78.33
2019-01-17T07:27:26.433Z,78.74
2019-01-17T07:28:26.307Z,78.64
2019-01-17T07:29:26.274Z,78.02
2019-01-17T07:30:26.782Z,77.50
2019-01-17T07:31:26.257Z,77.50
2019-01-17T07:32:26.221Z,78.33
2019-01-17T07:33:26.143Z,78.22
2019-01-17T07:34:26.111Z,78.33
2019-01-17T07:35:26.777Z,77.81
2019-01-17T07:36:26.045Z,77.77
2019-01-17T07:37:26.057Z,78.43
2019-01-17T07:38:25.979Z,78.02
2019-01-17T07:39:26.001Z,77.91
2019-01-17T07:40:25.916Z,77.50
2019-01-17T07:41:25.899Z,77.50
2019-01-17T07:42:25.893Z,77.70
2019-01-17T07:43:25.816Z,77.56
2019-01-17T07:44:25.852Z,77.39
2019-01-17T07:45:25.750Z,77.47
2019-01-17T07:46:25.711Z,77.56
2019-01-17T07:47:25.744Z,77.15
2019-01-17T07:48:25.649Z,77.47
2019-01-17T07:49:25.621Z,77.05
2019-01-17T07:50:26.279Z,77.05
2019-01-17T07:51:25.559Z,76.84
2019-01-17T07:52:25.579Z,77.05
2019-01-17T07:53:25.481Z,77.05
2019-01-17T07:54:25.561Z,77.05
2019-01-17T07:55:26.284Z,76.95
2019-01-17T07:56:25.387Z,77.05
2019-01-17T07:57:25.403Z,77.15
2019-01-17T07:58:25.322Z,77.56
2019-01-17T07:59:25.285Z,77.05
2019-01-17T08:00:25.252Z,77.15
2019-01-17T08:01:25.224Z,77.36
2019-01-17T08:02:25.227Z,77.05
2019-01-17T08:03:25.198Z,77.15
2019-01-17T08:04:25.120Z,77.77
2019-01-17T08:05:25.088Z,77.05
2019-01-17T08:06:25.054Z,77.77
2019-01-17T08:07:25.032Z,77.94
2019-01-17T08:08:25.041Z,78.36
2019-01-17T08:09:24.965Z,78.39
2019-01-17T08:10:24.924Z,78.50
2019-01-17T08:11:24.897Z,79.74
2019-01-17T08:12:24.859Z,79.84
2019-01-17T08:13:24.891Z,80.40
2019-01-17T08:14:24.822Z,81.54
2019-01-17T08:15:24.763Z,82.67
2019-01-17T08:16:24.729Z,82.36
2019-01-17T08:17:24.694Z,83.29
2019-01-17T08:18:24.705Z,82.36
2019-01-17T08:19:24.683Z,82.78
2019-01-17T08:20:24.601Z,83.02
2019-01-17T08:21:24.562Z,83.85
2019-01-17T08:22:24.598Z,83.33
2019-01-17T08:23:24.533Z,83.75
2019-01-17T08:24:24.523Z,83.02
2019-01-17T08:25:24.436Z,83.19
2019-01-17T08:26:24.394Z,82.26
2019-01-17T08:27:24.367Z,81.43
2019-01-17T08:28:24.339Z,80.60
2019-01-17T08:29:24.361Z,80.71
2019-01-17T08:30:24.266Z,81.02
2019-01-17T08:31:24.231Z,80.19
2019-01-17T08:32:24.204Z,79.74
2019-01-17T08:33:24.164Z,79.57
2019-01-17T08:34:28.306Z,79.57
2019-01-17T08:35:24.163Z,79.43
2019-01-17T08:36:24.068Z,78.91
2019-01-17T08:37:24.038Z,78.91
2019-01-17T08:38:24.004Z,78.81
2019-01-17T08:39:23.979Z,78.60
2019-01-17T08:40:24.341Z,79.02
2019-01-17T08:41:23.907Z,78.56
2019-01-17T08:42:23.870Z,77.84
2019-01-17T08:43:44.840Z,77.43
2019-01-17T08:44:23.809Z,78.70
2019-01-17T08:45:23.844Z,77.94
2019-01-17T08:46:23.743Z,78.56
2019-01-17T08:47:23.714Z,78.77
2019-01-17T08:48:23.688Z,79.19
2019-01-17T08:49:23.641Z,78.88
2019-01-17T08:50:23.854Z,77.64
2019-01-17T08:51:23.580Z,77.98
2019-01-17T08:52:23.546Z,78.50
2019-01-17T08:53:23.515Z,78.46
2019-01-17T08:54:23.569Z,78.25
2019-01-17T08:55:23.452Z,77.74
2019-01-17T08:56:23.432Z,78.05
2019-01-17T08:57:23.392Z,77.84
2019-01-17T08:58:23.354Z,78.15
2019-01-17T08:59:23.364Z,77.33
2019-01-17T09:00:23.330Z,77.43
2019-01-17T09:01:23.331Z,77.53
2019-01-17T09:02:23.243Z,77.33
2019-01-17T09:03:23.190Z,77.53
2019-01-17T09:04:23.155Z,77.22
2019-01-17T09:05:23.167Z,77.53
2019-01-17T09:06:23.097Z,77.53
2019-01-17T09:07:23.062Z,77.33
2019-01-17T09:08:23.025Z,76.81
2019-01-17T09:09:23.037Z,77.43
2019-01-17T09:10:23.800Z,77.22
2019-01-17T09:11:22.953Z,77.01
2019-01-17T09:12:22.898Z,77.08
2019-01-17T09:13:22.862Z,76.87
2019-01-17T09:14:22.878Z,76.46
2019-01-17T09:15:23.789Z,76.05
2019-01-17T09:16:22.768Z,76.98
2019-01-17T09:17:22.735Z,75.43
2019-01-17T09:18:22.744Z,76.26
2019-01-17T09:19:22.726Z,76.46
2019-01-17T09:20:22.694Z,76.67
2019-01-17T09:21:22.652Z,76.05
2019-01-17T09:22:22.623Z,76.12
2019-01-17T09:23:22.546Z,75.84
2019-01-17T09:24:22.518Z,75.84
2019-01-17T09:25:22.472Z,75.95
2019-01-17T09:26:22.440Z,75.84
2019-01-17T09:27:22.455Z,75.43
2019-01-17T09:28:22.383Z,75.01
2019-01-17T09:29:22.344Z,75.43
2019-01-17T09:30:22.312Z,75.91
2019-01-17T09:31:22.287Z,75.91
2019-01-17T09:32:22.309Z,75.39
2019-01-17T09:33:22.221Z,74.98
2019-01-17T09:34:22.192Z,74.98
2019-01-17T09:35:22.162Z,74.05
2019-01-17T09:36:22.166Z,73.74
2019-01-17T09:37:22.142Z,73.50
2019-01-17T09:38:22.057Z,73.95
2019-01-17T09:39:22.028Z,73.81
2019-01-17T09:40:21.993Z,73.60
2019-01-17T09:41:22.005Z,73.09
2019-01-17T09:42:21.982Z,72.92
2019-01-17T09:43:21.953Z,70.86
2019-01-17T09:44:21.866Z,71.37
2019-01-17T09:45:21.837Z,71.58
2019-01-17T09:46:21.804Z,71.68
2019-01-17T09:47:21.779Z,72.40
2019-01-17T09:48:21.785Z,72.30
2019-01-17T09:49:21.706Z,71.99
2019-01-17T09:50:21.674Z,71.89
2019-01-17T09:51:21.646Z,72.33
2019-01-17T09:52:21.615Z,71.92
2019-01-17T09:53:21.625Z,72.54
2019-01-17T09:54:21.548Z,72.54
2019-01-17T09:55:21.515Z,72.02
2019-01-17T09:56:21.487Z,71.61
2019-01-17T09:57:21.461Z,72.54
2019-01-17T09:58:21.485Z,72.57
2019-01-17T09:59:21.399Z,72.23
2019-01-17T10:00:21.367Z,71.92
2019-01-17T10:01:21.339Z,72.02
2019-01-17T10:02:21.303Z,71.81
2019-01-17T10:03:21.314Z,71.61
2019-01-17T10:04:22.096Z,72.02
2019-01-17T10:05:21.201Z,72.02
2019-01-17T10:06:21.819Z,72.13
2019-01-17T10:07:21.147Z,72.13
2019-01-17T10:08:21.162Z,72.02
2019-01-17T10:09:21.153Z,72.33
2019-01-17T10:10:21.063Z,72.26
2019-01-17T10:11:21.024Z,72.99
2019-01-17T10:12:20.983Z,72.47
2019-01-17T10:13:22.388Z,72.47
2019-01-17T10:14:20.969Z,72.26
2019-01-17T10:15:20.895Z,72.36
2019-01-17T10:16:20.859Z,71.75
2019-01-17T10:17:20.864Z,71.92
2019-01-17T10:18:20.857Z,72.54
2019-01-17T10:19:20.814Z,71.89
2019-01-17T10:20:20.731Z,71.99
2019-01-17T10:21:20.700Z,71.68
2019-01-17T10:22:20.713Z,71.06
2019-01-17T10:23:21.305Z,70.34
2019-01-17T10:24:20.666Z,71.20
2019-01-17T10:25:20.571Z,71.41
2019-01-17T10:26:21.244Z,71.30
2019-01-17T10:27:20.557Z,71.20
2019-01-17T10:28:21.517Z,71.61
2019-01-17T10:29:21.301Z,71.30
2019-01-17T10:30:20.462Z,70.75
2019-01-17T10:31:20.391Z,71.26
2019-01-17T10:32:20.355Z,71.06
2019-01-17T10:33:20.332Z,71.37
2019-01-17T10:34:20.364Z,69.31
2019-01-17T10:35:20.269Z,69.96
2019-01-17T10:36:20.226Z,70.54
2019-01-17T10:37:20.262Z,70.99
2019-01-17T10:38:20.176Z,71.30
2019-01-17T10:39:20.144Z,71.71
2019-01-17T10:40:20.102Z,71.41
2019-01-17T10:41:20.121Z,70.68
2019-01-17T10:42:20.044Z,70.78
2019-01-17T10:43:20.802Z,71.30
2019-01-17T10:44:19.982Z,71.71
2019-01-17T10:45:19.950Z,72.06
2019-01-17T10:46:20.360Z,71.81
2019-01-17T10:47:19.885Z,71.61
2019-01-17T10:48:19.857Z,71.61
2019-01-17T10:49:19.872Z,71.85
2019-01-17T10:50:19.785Z,71.64
2019-01-17T10:51:19.758Z,72.16
2019-01-17T10:52:19.769Z,72.06
2019-01-17T10:53:19.695Z,72.02
2019-01-17T10:54:19.661Z,71.44
2019-01-17T10:55:19.632Z,71.51
2019-01-17T10:56:19.601Z,71.20
2019-01-17T10:57:19.606Z,70.99
2019-01-17T10:58:19.542Z,71.20
2019-01-17T10:59:19.500Z,71.20
2019-01-17T11:00:19.518Z,71.09
2019-01-17T11:01:19.439Z,71.71
2019-01-17T11:02:19.406Z,70.89
2019-01-17T11:03:19.382Z,70.47
2019-01-17T11:04:19.389Z,70.86
2019-01-17T11:05:19.310Z,70.03
2019-01-17T11:06:19.278Z,70.23
2019-01-17T11:07:19.260Z,70.34
2019-01-17T11:08:19.266Z,69.41
2019-01-17T11:09:19.183Z,69.24
2019-01-17T11:10:19.177Z,69.75
2019-01-17T11:11:19.168Z,69.20
2019-01-17T11:12:19.091Z,69.41
2019-01-17T11:13:19.059Z,69.10
2019-01-17T11:14:19.031Z,69.31
2019-01-17T11:15:19.033Z,69.72
2019-01-17T11:16:18.966Z,69.51
2019-01-17T11:17:18.939Z,70.03
2019-01-17T11:18:18.905Z,69.00
2019-01-17T11:19:18.895Z,68.59
2019-01-17T11:20:18.915Z,69.00
2019-01-17T11:21:18.834Z,68.48
2019-01-17T11:22:18.777Z,69.00
2019-01-17T11:23:18.749Z,68.96
2019-01-17T11:24:18.728Z,68.45
2019-01-17T11:25:18.726Z,68.55
2019-01-17T11:26:18.741Z,68.55
2019-01-17T11:27:18.619Z,68.55
2019-01-17T11:28:18.591Z,68.14
2019-01-17T11:29:18.651Z,68.66
2019-01-17T11:30:18.525Z,68.04
2019-01-17T11:31:18.498Z,68.35
2019-01-17T11:32:18.469Z,68.27
2019-01-17T11:33:18.435Z,68.96
2019-01-17T11:34:18.447Z,68.04
2019-01-17T11:35:18.372Z,68.32
2019-01-17T11:36:18.385Z,68.01
2019-01-17T11:37:18.308Z,67.70
2019-01-17T11:38:18.817Z,67.90
2019-01-17T11:39:18.251Z,67.49
2019-01-17T11:40:18.213Z,67.60
2019-01-17T11:41:18.242Z,67.08
2019-01-17T11:42:18.154Z,67.08
2019-01-17T11:43:25.187Z,67.90
2019-01-17T11:44:18.089Z,68.11
2019-01-17T11:45:18.157Z,68.73
2019-01-17T11:46:18.092Z,67.29
2019-01-17T11:47:18.009Z,67.08
2019-01-17T11:48:18.013Z,67.80
2019-01-17T11:49:17.937Z,66.56
2019-01-17T11:50:18.839Z,66.87
2019-01-17T11:51:17.875Z,66.77
2019-01-17T11:52:17.843Z,66.84
2019-01-17T11:53:17.855Z,64.92
2019-01-17T11:54:17.800Z,64.50
2019-01-17T11:55:18.331Z,65.53
2019-01-17T11:56:17.719Z,65.81
2019-01-17T11:57:17.705Z,65.61
2019-01-17T11:58:18.240Z,65.40
2019-01-17T11:59:17.630Z,64.65
2019-01-17T12:00:17.594Z,64.44
2019-01-17T12:01:17.570Z,64.11
2019-01-17T12:02:17.537Z,64.00
2019-01-17T12:03:17.549Z,64.11
2019-01-17T12:04:17.475Z,63.59
2019-01-17T12:05:17.500Z,64.24
2019-01-17T12:06:17.419Z,64.41
2019-01-17T12:07:17.382Z,64.69
2019-01-17T12:08:17.348Z,63.56
2019-01-17T12:09:17.320Z,62.97
2019-01-17T12:10:17.350Z,62.77
2019-01-17T12:11:17.268Z,62.95
2019-01-17T12:12:17.228Z,62.35
2019-01-17T12:13:17.479Z,62.66
2019-01-17T12:14:17.167Z,63.90
2019-01-17T12:15:17.181Z,63.39
2019-01-17T12:16:17.146Z,62.77
2019-01-17T12:17:17.137Z,62.25
2019-01-17T12:18:17.066Z,62.15
2019-01-17T12:19:17.036Z,61.53
2019-01-17T12:20:16.999Z,62.87
2019-01-17T12:21:16.954Z,62.97
2019-01-17T12:22:16.977Z,62.70
2019-01-17T12:23:16.898Z,63.49
2019-01-17T12:24:16.904Z,63.05
2019-01-17T12:25:16.843Z,62.23
2019-01-17T12:26:16.804Z,63.05
2019-01-17T12:27:16.780Z,62.53
2019-01-17T12:28:16.806Z,61.79
2019-01-17T12:29:16.711Z,60.75
2019-01-17T12:30:16.724Z,62.09
2019-01-17T12:31:16.654Z,60.65
2019-01-17T12:32:16.627Z,61.19
2019-01-17T12:33:16.640Z,60.68
2019-01-17T12:34:16.607Z,61.25
2019-01-17T12:35:16.530Z,61.63
2019-01-17T12:36:16.553Z,62.05
2019-01-17T12:37:16.467Z,61.33
2019-01-17T12:38:16.441Z,60.89
2019-01-17T12:39:16.409Z,61.19
2019-01-17T12:40:16.425Z,61.30
2019-01-17T12:41:16.359Z,60.68
2019-01-17T12:42:16.324Z,60.68
2019-01-17T12:43:16.297Z,60.19
2019-01-17T12:44:16.256Z,61.02
2019-01-17T12:45:16.272Z,61.22
2019-01-17T12:46:16.241Z,61.22
2019-01-17T12:47:16.167Z,61.43
2019-01-17T12:48:16.137Z,61.25
2019-01-17T12:49:16.132Z,61.33
2019-01-17T12:50:16.082Z,61.05
2019-01-17T12:51:16.098Z,61.15
2019-01-17T12:52:16.011Z,61.46